createdAt,value
2022-11-17T00:00:24.223Z,96394.00
2022-11-17T00:02:52.110Z,96391.00
2022-11-17T00:05:21.231Z,96388.00
2022-11-17T00:07:50.844Z,96376.00
2022-11-17T00:10:19.116Z,96373.00
2022-11-17T00:13:04.451Z,96385.00
2022-11-17T00:15:32.343Z,96372.00
2022-11-17T00:18:14.059Z,96378.00
2022-11-17T00:21:00.454Z,96383.00
2022-11-17T00:23:46.993Z,96385.00
2022-11-17T00:26:17.171Z,96388.00
2022-11-17T00:28:45.456Z,96388.00
2022-11-17T00:31:32.102Z,96388.00
2022-11-17T00:34:06.100Z,96388.00
2022-11-17T00:36:37.399Z,96380.00
2022-11-17T00:39:07.740Z,96382.00
2022-11-17T00:41:36.183Z,96361.00
2022-11-17T00:44:04.732Z,96365.00
2022-11-17T00:46:33.507Z,96372.00
2022-11-17T00:49:01.342Z,96362.00
2022-11-17T00:51:30.103Z,96363.00
2022-11-17T00:53:58.033Z,96363.00
2022-11-17T00:56:27.710Z,96362.00
2022-11-17T00:58:55.956Z,96365.00
2022-11-17T01:01:24.537Z,96367.00
2022-11-17T01:04:02.618Z,96351.00
2022-11-17T01:06:33.670Z,96354.00
2022-11-17T01:09:02.183Z,96362.00
2022-11-17T01:11:31.639Z,96350.00
2022-11-17T01:14:01.890Z,96347.00
2022-11-17T01:16:32.811Z,96342.00
2022-11-17T01:19:02.082Z,96344.00
2022-11-17T01:21:31.726Z,96348.00
2022-11-17T01:24:02.420Z,96351.00
2022-11-17T01:26:34.375Z,96345.00
2022-11-17T01:29:04.875Z,96344.00
2022-11-17T01:31:35.638Z,96335.00
2022-11-17T01:34:03.566Z,96337.00
2022-11-17T01:36:55.779Z,96338.00
2022-11-17T01:39:24.979Z,96332.00
2022-11-17T01:41:55.570Z,96321.00
2022-11-17T01:44:59.132Z,96316.00
2022-11-17T01:47:40.515Z,96324.00
2022-11-17T01:50:23.311Z,96320.00
2022-11-17T01:52:54.750Z,96309.00
2022-11-17T01:55:25.349Z,96299.00
2022-11-17T01:58:02.442Z,96292.00
2022-11-17T02:00:30.751Z,96309.00
2022-11-17T02:02:59.129Z,96290.00
2022-11-17T02:05:44.485Z,96292.00
2022-11-17T02:08:13.282Z,96287.00
2022-11-17T02:10:44.755Z,96274.00
2022-11-17T02:13:18.137Z,96274.00
2022-11-17T02:15:46.140Z,96276.00
2022-11-17T02:18:14.248Z,96272.00
2022-11-17T02:20:57.940Z,96260.00
2022-11-17T02:24:22.195Z,96261.00
2022-11-17T02:27:26.017Z,96265.00
2022-11-17T02:30:01.684Z,96255.00
2022-11-17T02:32:42.295Z,96248.00
2022-11-17T02:35:20.801Z,96248.00
2022-11-17T02:38:01.055Z,96252.00
2022-11-17T02:40:35.649Z,96244.00
2022-11-17T02:43:30.638Z,96222.00
2022-11-17T02:46:05.668Z,96233.00
2022-11-17T02:48:38.774Z,96219.00
2022-11-17T02:51:11.432Z,96227.00
2022-11-17T02:53:40.691Z,96228.00
2022-11-17T02:56:09.193Z,96219.00
2022-11-17T02:58:38.364Z,96217.00
2022-11-17T03:01:26.669Z,96203.00
2022-11-17T03:04:21.223Z,96182.00
2022-11-17T03:07:06.268Z,96184.00
2022-11-17T03:09:47.820Z,96181.00
2022-11-17T03:12:25.663Z,96175.00
2022-11-17T03:15:04.830Z,96179.00
2022-11-17T03:17:42.260Z,96182.00
2022-11-17T03:20:17.019Z,96176.00
2022-11-17T03:22:55.357Z,96170.00
2022-11-17T03:25:27.084Z,96170.00
2022-11-17T03:28:00.603Z,96180.00
2022-11-17T03:30:37.215Z,96173.00
2022-11-17T03:33:15.592Z,96173.00
2022-11-17T03:35:50.853Z,96172.00
2022-11-17T03:38:24.387Z,96172.00
2022-11-17T03:40:56.811Z,96162.00
2022-11-17T03:43:28.456Z,96155.00
2022-11-17T03:46:06.253Z,96171.00
2022-11-17T03:48:40.578Z,96160.00
2022-11-17T03:51:13.835Z,96154.00
2022-11-17T03:53:43.432Z,96156.00
2022-11-17T03:56:28.426Z,96149.00
2022-11-17T03:59:02.212Z,96155.00
2022-11-17T04:01:34.856Z,96145.00
2022-11-17T04:04:02.765Z,96137.00
2022-11-17T04:06:30.587Z,96138.00
2022-11-17T04:08:58.382Z,96147.00
2022-11-17T04:11:43.491Z,96149.00
2022-11-17T04:14:36.926Z,96140.00
2022-11-17T04:17:06.302Z,96134.00
2022-11-17T04:19:34.114Z,96133.00
2022-11-17T04:22:01.936Z,96111.00
2022-11-17T04:24:29.759Z,96099.00
2022-11-17T04:27:14.938Z,96095.00
2022-11-17T04:29:42.727Z,96096.00
2022-11-17T04:32:11.832Z,96085.00
2022-11-17T04:34:42.542Z,96079.00
2022-11-17T04:37:17.301Z,96077.00
2022-11-17T04:39:45.944Z,96053.00
2022-11-17T04:42:12.794Z,96078.00
2022-11-17T04:44:40.676Z,96089.00
2022-11-17T04:47:08.621Z,96092.00
2022-11-17T04:49:37.768Z,96079.00
2022-11-17T04:52:06.009Z,96087.00
2022-11-17T04:54:33.874Z,96076.00
2022-11-17T04:57:01.662Z,96080.00
2022-11-17T04:59:29.534Z,96083.00
2022-11-17T05:02:02.545Z,96087.00
2022-11-17T05:04:50.961Z,96092.00
2022-11-17T05:07:20.267Z,96083.00
2022-11-17T05:09:48.123Z,96085.00
2022-11-17T05:12:33.927Z,96087.00
2022-11-17T05:15:01.809Z,96103.00
2022-11-17T05:17:28.615Z,96103.00
2022-11-17T05:19:58.324Z,96110.00
2022-11-17T05:22:45.005Z,96117.00
2022-11-17T05:25:12.824Z,96117.00
2022-11-17T05:27:40.645Z,96112.00
2022-11-17T05:30:10.680Z,96106.00
2022-11-17T05:32:38.522Z,96112.00
2022-11-17T05:35:07.854Z,96109.00
2022-11-17T05:37:37.024Z,96105.00
2022-11-17T05:40:05.649Z,96118.00
2022-11-17T05:42:34.183Z,96102.00
2022-11-17T05:45:01.971Z,96103.00
2022-11-17T05:47:29.749Z,96101.00
2022-11-17T05:49:57.576Z,96097.00
2022-11-17T05:52:25.335Z,96102.00
2022-11-17T05:54:54.412Z,96107.00
2022-11-17T05:57:32.102Z,96095.00
2022-11-17T06:00:05.392Z,96112.00
2022-11-17T06:02:39.784Z,96100.00
2022-11-17T06:05:09.064Z,96113.00
2022-11-17T06:07:37.969Z,96110.00
2022-11-17T06:10:08.370Z,96106.00
2022-11-17T06:12:36.216Z,96092.00
2022-11-17T06:15:04.347Z,96095.00
2022-11-17T06:17:37.450Z,96092.00
2022-11-17T06:20:13.300Z,96101.00
2022-11-17T06:22:47.021Z,96104.00
2022-11-17T06:25:18.995Z,96114.00
2022-11-17T06:27:48.730Z,96113.00
2022-11-17T06:30:16.877Z,96119.00
2022-11-17T06:32:45.893Z,96120.00
2022-11-17T06:35:16.590Z,96116.00
2022-11-17T06:37:44.601Z,96120.00
2022-11-17T06:40:13.364Z,96125.00
2022-11-17T06:43:00.171Z,96121.00
2022-11-17T06:45:28.335Z,96121.00
2022-11-17T06:47:56.405Z,96124.00
2022-11-17T06:50:24.281Z,96126.00
2022-11-17T06:52:52.084Z,96133.00
2022-11-17T06:55:19.851Z,96141.00
2022-11-17T06:57:53.194Z,96152.00
2022-11-17T07:00:22.186Z,96131.00
2022-11-17T07:02:49.976Z,96142.00
2022-11-17T07:05:17.881Z,96138.00
2022-11-17T07:07:45.734Z,96131.00
2022-11-17T07:10:13.585Z,96112.00
2022-11-17T07:12:41.338Z,96111.00
2022-11-17T07:15:11.663Z,96107.00
2022-11-17T07:17:39.424Z,96098.00
2022-11-17T07:20:10.482Z,96106.00
2022-11-17T07:22:39.059Z,96103.00
2022-11-17T07:25:07.459Z,96117.00
2022-11-17T07:27:35.815Z,96126.00
2022-11-17T07:30:03.889Z,96123.00
2022-11-17T07:32:33.987Z,96131.00
2022-11-17T07:35:05.696Z,96123.00
2022-11-17T07:37:34.286Z,96092.00
2022-11-17T07:40:02.071Z,96101.00
2022-11-17T07:42:29.961Z,96109.00
2022-11-17T07:44:57.758Z,96097.00
2022-11-17T07:47:25.653Z,96089.00
2022-11-17T07:49:54.776Z,96092.00
2022-11-17T07:52:22.526Z,96078.00
2022-11-17T07:54:50.328Z,96095.00
2022-11-17T07:57:18.104Z,96105.00
2022-11-17T07:59:45.965Z,96096.00
2022-11-17T08:02:13.843Z,96092.00
2022-11-17T08:04:41.621Z,96089.00
2022-11-17T08:07:10.886Z,96097.00
2022-11-17T08:09:38.733Z,96080.00
2022-11-17T08:12:07.174Z,96083.00
2022-11-17T08:14:35.002Z,96087.00
2022-11-17T08:17:03.130Z,96076.00
2022-11-17T08:19:30.958Z,96082.00
2022-11-17T08:21:58.708Z,96076.00
2022-11-17T08:24:27.875Z,96083.00
2022-11-17T08:26:56.255Z,96080.00
2022-11-17T08:29:24.685Z,96086.00
2022-11-17T08:31:52.448Z,96094.00
2022-11-17T08:34:20.308Z,96078.00
2022-11-17T08:36:48.243Z,96085.00
2022-11-17T08:39:16.428Z,96081.00
2022-11-17T08:41:45.587Z,96082.00
2022-11-17T08:44:13.383Z,96094.00
2022-11-17T08:46:41.175Z,96090.00
2022-11-17T08:49:08.947Z,96104.00
2022-11-17T08:51:36.830Z,96095.00
2022-11-17T08:54:04.882Z,96101.00
2022-11-17T08:56:32.713Z,96093.00
2022-11-17T08:59:03.594Z,96100.00
2022-11-17T09:01:31.322Z,96109.00
2022-11-17T09:03:59.166Z,96110.00
2022-11-17T09:06:27.024Z,96121.00
2022-11-17T09:08:55.651Z,96107.00
2022-11-17T09:11:23.902Z,96113.00
2022-11-17T09:13:51.900Z,96107.00
2022-11-17T09:16:21.067Z,96119.00
2022-11-17T09:18:48.852Z,96118.00
2022-11-17T09:21:17.265Z,96120.00
2022-11-17T09:23:45.605Z,96108.00
2022-11-17T09:26:15.621Z,96107.00
2022-11-17T09:28:44.267Z,96116.00
2022-11-17T09:31:15.332Z,96124.00
2022-11-17T09:33:45.058Z,96113.00
2022-11-17T09:36:16.161Z,96114.00
2022-11-17T09:38:44.204Z,96103.00
2022-11-17T09:41:26.251Z,96095.00
2022-11-17T09:44:16.457Z,96107.00
2022-11-17T09:47:03.086Z,96112.00
2022-11-17T09:49:46.887Z,96101.00
2022-11-17T09:52:21.799Z,96099.00
2022-11-17T09:54:56.308Z,96110.00
2022-11-17T09:57:34.967Z,96118.00
2022-11-17T10:00:14.744Z,96120.00
2022-11-17T10:02:43.723Z,96109.00
2022-11-17T10:05:20.511Z,96101.00
2022-11-17T10:07:52.455Z,96101.00
2022-11-17T10:10:28.950Z,96102.00
2022-11-17T10:13:00.105Z,96102.00
2022-11-17T10:15:34.615Z,96104.00
2022-11-17T10:18:02.431Z,96111.00
2022-11-17T10:20:31.863Z,96101.00
2022-11-17T10:23:00.187Z,96087.00
2022-11-17T10:25:47.476Z,96096.00
2022-11-17T10:28:28.024Z,96099.00
2022-11-17T10:31:00.146Z,96091.00
2022-11-17T10:33:38.256Z,96088.00
2022-11-17T10:36:19.890Z,96094.00
2022-11-17T10:38:50.891Z,96101.00
2022-11-17T10:41:21.128Z,96096.00
2022-11-17T10:44:01.118Z,96094.00
2022-11-17T10:46:36.757Z,96090.00
2022-11-17T10:49:26.982Z,96093.00
2022-11-17T10:52:15.242Z,96085.00
2022-11-17T10:54:43.569Z,96094.00
2022-11-17T10:57:21.351Z,96091.00
2022-11-17T10:59:57.010Z,96090.00
2022-11-17T11:02:32.145Z,96092.00
2022-11-17T11:05:21.162Z,96085.00
2022-11-17T11:07:50.866Z,96089.00
2022-11-17T11:10:27.831Z,96070.00
2022-11-17T11:13:11.605Z,96078.00
2022-11-17T11:15:40.397Z,96083.00
2022-11-17T11:18:19.114Z,96080.00
2022-11-17T11:20:57.243Z,96078.00
2022-11-17T11:23:44.485Z,96069.00
2022-11-17T11:26:35.936Z,96070.00
2022-11-17T11:29:21.410Z,96071.00
2022-11-17T11:32:04.653Z,96069.00
2022-11-17T11:35:16.041Z,96070.00
2022-11-17T11:38:00.245Z,96079.00
2022-11-17T11:40:35.963Z,96073.00
2022-11-17T11:43:22.006Z,96067.00
2022-11-17T11:46:04.248Z,96065.00
2022-11-17T11:48:34.912Z,96062.00
2022-11-17T11:51:10.791Z,96067.00
2022-11-17T11:53:51.850Z,96068.00
2022-11-17T11:56:26.068Z,96057.00
2022-11-17T11:59:02.165Z,96044.00
2022-11-17T12:01:41.442Z,96043.00
2022-11-17T12:04:25.590Z,96030.00
2022-11-17T12:07:05.521Z,96052.00
2022-11-17T12:09:57.222Z,96048.00
2022-11-17T12:12:33.255Z,96049.00
2022-11-17T12:15:31.111Z,96047.00
2022-11-17T12:18:06.107Z,96042.00
2022-11-17T12:20:55.195Z,96042.00
2022-11-17T12:23:56.811Z,96046.00
2022-11-17T12:26:28.836Z,96050.00
2022-11-17T12:29:31.757Z,96054.00
2022-11-17T12:32:03.312Z,96047.00
2022-11-17T12:34:37.241Z,96048.00
2022-11-17T12:37:29.173Z,96048.00
2022-11-17T12:40:03.599Z,96046.00
2022-11-17T12:42:33.052Z,96046.00
2022-11-17T12:45:13.301Z,96039.00
2022-11-17T12:47:46.166Z,96035.00
2022-11-17T12:50:50.169Z,96043.00
2022-11-17T12:53:47.742Z,96042.00
2022-11-17T12:56:33.912Z,96010.00
2022-11-17T12:59:24.111Z,96035.00
2022-11-17T13:02:05.551Z,96027.00
2022-11-17T13:04:46.393Z,96045.00
2022-11-17T13:07:21.524Z,96041.00
2022-11-17T13:09:52.875Z,96049.00
2022-11-17T13:12:24.764Z,96062.00
2022-11-17T13:14:55.812Z,96070.00
2022-11-17T13:17:30.344Z,96092.00
2022-11-17T13:20:04.872Z,96104.00
2022-11-17T13:22:35.331Z,96103.00
2022-11-17T13:25:22.025Z,96107.00
2022-11-17T13:27:56.073Z,96090.00
2022-11-17T13:30:30.206Z,96116.00
2022-11-17T13:33:03.785Z,96121.00
2022-11-17T13:35:35.237Z,96116.00
2022-11-17T13:38:06.755Z,96152.00
2022-11-17T13:40:37.670Z,96127.00
2022-11-17T13:43:05.891Z,96137.00
2022-11-17T13:45:34.081Z,96119.00
2022-11-17T13:48:03.327Z,96125.00
2022-11-17T13:50:38.207Z,96123.00
2022-11-17T13:53:24.096Z,96135.00
2022-11-17T13:55:53.099Z,96132.00
2022-11-17T13:58:34.847Z,96134.00
2022-11-17T14:01:03.621Z,96132.00
2022-11-17T14:03:39.173Z,96117.00
2022-11-17T14:06:09.639Z,96108.00
2022-11-17T14:08:39.779Z,96117.00
2022-11-17T14:11:16.249Z,96108.00
2022-11-17T14:13:46.695Z,96114.00
2022-11-17T14:16:28.627Z,96111.00
2022-11-17T14:19:03.054Z,96126.00
2022-11-17T14:21:32.332Z,96118.00
2022-11-17T14:24:13.250Z,96125.00
2022-11-17T14:26:45.543Z,96125.00
2022-11-17T14:29:14.978Z,96129.00
2022-11-17T14:31:43.211Z,96130.00
2022-11-17T14:34:12.949Z,96126.00
2022-11-17T14:36:42.088Z,96126.00
2022-11-17T14:39:18.989Z,96132.00
2022-11-17T14:41:49.259Z,96135.00
2022-11-17T14:44:17.990Z,96136.00
2022-11-17T14:46:46.023Z,96136.00
2022-11-17T14:49:15.483Z,96136.00
2022-11-17T14:51:43.556Z,96140.00
2022-11-17T14:54:11.393Z,96137.00
2022-11-17T14:56:39.289Z,96106.00
2022-11-17T14:59:08.320Z,96114.00
2022-11-17T15:01:38.574Z,96124.00
2022-11-17T15:04:34.384Z,96126.00
2022-11-17T15:06:57.558Z,96132.00
2022-11-17T15:09:25.605Z,96122.00
2022-11-17T15:11:53.512Z,96101.00
2022-11-17T15:14:21.558Z,96121.00
2022-11-17T15:16:49.726Z,96125.00
2022-11-17T15:19:17.783Z,96133.00
2022-11-17T15:21:45.800Z,96122.00
2022-11-17T15:24:15.567Z,96130.00
2022-11-17T15:26:44.406Z,96132.00
2022-11-17T15:29:15.294Z,96121.00
2022-11-17T15:31:44.052Z,96115.00
2022-11-17T15:34:15.678Z,96137.00
2022-11-17T15:36:48.229Z,96132.00
2022-11-17T15:39:18.014Z,96092.00
2022-11-17T15:41:46.395Z,96122.00
2022-11-17T15:44:14.873Z,96126.00
2022-11-17T15:46:47.392Z,96121.00
2022-11-17T15:49:15.989Z,96119.00
2022-11-17T15:51:44.233Z,96104.00
2022-11-17T15:54:18.487Z,96133.00
2022-11-17T15:56:52.109Z,96125.00
2022-11-17T15:59:20.583Z,96130.00
2022-11-17T16:01:48.944Z,96123.00
2022-11-17T16:04:17.176Z,96122.00
2022-11-17T16:06:47.159Z,96132.00
2022-11-17T16:09:17.082Z,96145.00
2022-11-17T16:11:45.575Z,96150.00
2022-11-17T16:14:15.349Z,96155.00
2022-11-17T16:16:43.632Z,96152.00
2022-11-17T16:19:11.488Z,96144.00
2022-11-17T16:21:39.302Z,96134.00
2022-11-17T16:24:08.131Z,96140.00
2022-11-17T16:26:37.096Z,96151.00
2022-11-17T16:29:07.930Z,96148.00
2022-11-17T16:31:38.627Z,96157.00
2022-11-17T16:34:11.552Z,96164.00
2022-11-17T16:36:41.441Z,96173.00
2022-11-17T16:39:12.136Z,96200.00
2022-11-17T16:41:42.452Z,96187.00
2022-11-17T16:44:13.686Z,96183.00
2022-11-17T16:46:45.625Z,96186.00
2022-11-17T16:49:16.043Z,96181.00
2022-11-17T16:51:48.704Z,96179.00
2022-11-17T16:54:17.958Z,96173.00
2022-11-17T16:56:45.869Z,96173.00
2022-11-17T16:59:14.842Z,96174.00
2022-11-17T17:01:47.610Z,96178.00
2022-11-17T17:04:15.738Z,96175.00
2022-11-17T17:06:45.950Z,96163.00
2022-11-17T17:09:16.069Z,96175.00
2022-11-17T17:11:44.289Z,96165.00
2022-11-17T17:14:15.889Z,96173.00
2022-11-17T17:16:45.103Z,96163.00
2022-11-17T17:19:16.453Z,96175.00
2022-11-17T17:21:45.541Z,96179.00
2022-11-17T17:24:13.756Z,96185.00
2022-11-17T17:26:42.151Z,96179.00
2022-11-17T17:29:11.744Z,96184.00
2022-11-17T17:31:42.391Z,96177.00
2022-11-17T17:34:13.860Z,96172.00
2022-11-17T17:36:41.798Z,96168.00
2022-11-17T17:39:11.314Z,96168.00
2022-11-17T17:41:41.879Z,96163.00
2022-11-17T17:44:15.576Z,96158.00
2022-11-17T17:46:44.069Z,96154.00
2022-11-17T17:49:14.280Z,96163.00
2022-11-17T17:51:44.756Z,96160.00
2022-11-17T17:54:17.639Z,96156.00
2022-11-17T17:56:46.550Z,96142.00
2022-11-17T17:59:15.938Z,96152.00
2022-11-17T18:01:46.107Z,96134.00
2022-11-17T18:04:16.408Z,96143.00
2022-11-17T18:06:47.402Z,96143.00
2022-11-17T18:09:19.041Z,96142.00
2022-11-17T18:11:49.647Z,96134.00
2022-11-17T18:14:20.421Z,96137.00
2022-11-17T18:16:49.670Z,96132.00
2022-11-17T18:19:19.650Z,96129.00
2022-11-17T18:21:47.776Z,96131.00
2022-11-17T18:24:15.601Z,96126.00
2022-11-17T18:26:43.860Z,96125.00
2022-11-17T18:29:16.368Z,96134.00
2022-11-17T18:31:46.747Z,96140.00
2022-11-17T18:34:20.903Z,96140.00
2022-11-17T18:36:49.143Z,96139.00
2022-11-17T18:39:17.515Z,96140.00
2022-11-17T18:41:46.408Z,96130.00
2022-11-17T18:44:15.346Z,96131.00
2022-11-17T18:46:43.242Z,96137.00
2022-11-17T18:49:11.672Z,96139.00
2022-11-17T18:51:41.960Z,96128.00
2022-11-17T18:54:12.848Z,96116.00
2022-11-17T18:56:40.999Z,96124.00
2022-11-17T18:59:11.451Z,96123.00
2022-11-17T19:01:44.218Z,96118.00
2022-11-17T19:04:14.323Z,96125.00
2022-11-17T19:06:43.603Z,96128.00
2022-11-17T19:09:13.512Z,96135.00
2022-11-17T19:11:41.583Z,96141.00
2022-11-17T19:14:09.371Z,96137.00
2022-11-17T19:16:44.119Z,96133.00
2022-11-17T19:19:14.511Z,96146.00
2022-11-17T19:21:44.605Z,96148.00
2022-11-17T19:24:13.425Z,96161.00
2022-11-17T19:26:42.678Z,96177.00
2022-11-17T19:29:16.768Z,96181.00
2022-11-17T19:31:46.145Z,96186.00
2022-11-17T19:34:14.400Z,96191.00
2022-11-17T19:36:44.431Z,96167.00
2022-11-17T19:39:13.750Z,96187.00
2022-11-17T19:41:42.245Z,96168.00
2022-11-17T19:44:11.130Z,96174.00
2022-11-17T19:46:39.104Z,96160.00
2022-11-17T19:49:08.864Z,96165.00
2022-11-17T19:51:37.816Z,96173.00
2022-11-17T19:54:10.114Z,96177.00
2022-11-17T19:56:38.439Z,96179.00
2022-11-17T19:59:11.015Z,96189.00
2022-11-17T20:01:42.092Z,96186.00
2022-11-17T20:04:10.151Z,96189.00
2022-11-17T20:06:41.039Z,96181.00
2022-11-17T20:09:13.291Z,96178.00
2022-11-17T20:11:42.177Z,96168.00
2022-11-17T20:14:10.768Z,96170.00
2022-11-17T20:16:38.788Z,96165.00
2022-11-17T20:19:06.988Z,96166.00
2022-11-17T20:21:34.845Z,96180.00
2022-11-17T20:24:03.369Z,96179.00
2022-11-17T20:26:35.160Z,96204.00
2022-11-17T20:29:03.189Z,96206.00
2022-11-17T20:31:33.564Z,96210.00
2022-11-17T20:34:04.199Z,96198.00
2022-11-17T20:36:34.526Z,96200.00
2022-11-17T20:39:04.942Z,96196.00
2022-11-17T20:41:34.136Z,96202.00
2022-11-17T20:44:03.291Z,96198.00
2022-11-17T20:46:31.420Z,96207.00
2022-11-17T20:48:59.223Z,96227.00
2022-11-17T20:51:27.260Z,96217.00
2022-11-17T20:53:55.232Z,96213.00
2022-11-17T20:56:23.093Z,96205.00
2022-11-17T20:58:52.233Z,96208.00
2022-11-17T21:01:22.839Z,96203.00
2022-11-17T21:03:50.945Z,96188.00
2022-11-17T21:06:19.977Z,96192.00
2022-11-17T21:08:48.283Z,96189.00
2022-11-17T21:11:32.410Z,96184.00
2022-11-17T21:14:02.250Z,96193.00
2022-11-17T21:16:33.046Z,96191.00
2022-11-17T21:19:01.359Z,96187.00
2022-11-17T21:21:29.472Z,96192.00
2022-11-17T21:23:57.451Z,96187.00
2022-11-17T21:26:25.619Z,96191.00
2022-11-17T21:28:53.946Z,96191.00
2022-11-17T21:31:26.464Z,96186.00
2022-11-17T21:33:55.791Z,96184.00
2022-11-17T21:36:25.740Z,96180.00
2022-11-17T21:38:54.364Z,96183.00
2022-11-17T21:41:24.495Z,96173.00
2022-11-17T21:43:55.317Z,96183.00
2022-11-17T21:46:27.281Z,96184.00
2022-11-17T21:48:58.014Z,96188.00
2022-11-17T21:51:29.027Z,96179.00
2022-11-17T21:53:58.384Z,96183.00
2022-11-17T21:56:27.164Z,96166.00
2022-11-17T21:58:56.396Z,96173.00
2022-11-17T22:01:26.561Z,96173.00
2022-11-17T22:03:54.672Z,96182.00
2022-11-17T22:06:24.574Z,96170.00
2022-11-17T22:08:52.923Z,96189.00
2022-11-17T22:11:35.210Z,96193.00
2022-11-17T22:14:09.876Z,96195.00
2022-11-17T22:16:41.861Z,96192.00
2022-11-17T22:19:11.031Z,96185.00
2022-11-17T22:21:40.181Z,96185.00
2022-11-17T22:24:11.420Z,96189.00
2022-11-17T22:26:41.203Z,96195.00
2022-11-17T22:29:13.127Z,96191.00
2022-11-17T22:31:43.134Z,96192.00
2022-11-17T22:34:11.262Z,96193.00
2022-11-17T22:36:52.877Z,96197.00
2022-11-17T22:39:20.735Z,96207.00
2022-11-17T22:41:48.528Z,96211.00
2022-11-17T22:44:17.203Z,96214.00
2022-11-17T22:46:46.651Z,96205.00
2022-11-17T22:49:14.700Z,96206.00
2022-11-17T22:52:00.375Z,96198.00
2022-11-17T22:54:28.306Z,96196.00
2022-11-17T22:56:56.079Z,96180.00
2022-11-17T22:59:24.226Z,96198.00
2022-11-17T23:01:53.719Z,96203.00
2022-11-17T23:04:22.974Z,96202.00
2022-11-17T23:06:51.302Z,96207.00
2022-11-17T23:09:19.403Z,96211.00
2022-11-17T23:11:47.478Z,96213.00
2022-11-17T23:14:15.600Z,96219.00
2022-11-17T23:16:43.741Z,96212.00
2022-11-17T23:19:16.309Z,96215.00
2022-11-17T23:21:44.426Z,96206.00
2022-11-17T23:24:14.493Z,96208.00
2022-11-17T23:26:43.215Z,96210.00
2022-11-17T23:29:11.353Z,96204.00
2022-11-17T23:31:39.192Z,96202.00
2022-11-17T23:34:10.263Z,96200.00
2022-11-17T23:36:39.716Z,96199.00
2022-11-17T23:39:07.768Z,96199.00
2022-11-17T23:41:35.659Z,96200.00
2022-11-17T23:44:03.608Z,96196.00
2022-11-17T23:46:31.505Z,96196.00
2022-11-17T23:48:59.317Z,96194.00
2022-11-17T23:51:29.823Z,96199.00
2022-11-17T23:54:02.778Z,96183.00
2022-11-17T23:56:33.555Z,96182.00
2022-11-17T23:59:01.535Z,96197.00
